Time;durP1;ratioP1;P1;durP2;ratioP2;P2;SDS_P1;SDS_P2;PMS_P1;PMS_P2;Temp;Humidity;BMP_temperature;BMP_pressure;BME280_temperature;BME280_humidity;BME280_pressure;Samples;Min_cycle;Max_cycle;Signal;HPM_P1;HPM_P2
2022/04/05 00:02:25;;;;;;;0.70;0.70;;;5.40;72.00;;;4.33;60.86;94010.72;5023997;28;20224;-82
2022/04/05 00:04:52;;;;;;;0.80;0.80;;;5.40;72.20;;;4.31;61.62;94018.69;5038339;28;20254;-83
2022/04/05 00:07:19;;;;;;;0.70;0.70;;;5.40;72.70;;;4.32;62.23;94027.25;5050752;28;20643;-82
2022/04/05 00:09:47;;;;;;;0.80;0.80;;;5.40;72.70;;;4.31;62.75;94010.91;5051056;28;20241;-80
2022/04/05 00:12:14;;;;;;;0.70;0.70;;;5.40;72.70;;;4.31;63.50;94003.09;5070721;28;20207;-83
2022/04/05 00:14:41;;;;;;;0.70;0.70;;;5.40;73.00;;;4.30;62.09;93998.91;5057577;28;20265;-83
2022/04/05 00:17:09;;;;;;;0.70;0.70;;;5.40;72.70;;;4.35;61.43;93989.78;5045767;28;20275;-83
2022/04/05 00:19:36;;;;;;;0.70;0.70;;;5.40;72.70;;;4.37;61.26;94003.38;5034057;28;20228;-83
2022/04/05 00:22:04;;;;;;;0.80;0.80;;;5.40;72.60;;;4.38;62.37;93990.25;5067442;28;20592;-83
2022/04/05 00:24:31;;;;;;;0.60;0.60;;;5.40;72.70;;;4.36;62.12;93981.00;5067486;28;20224;-83
2022/04/05 00:26:59;;;;;;;0.60;0.60;;;5.40;72.70;;;4.36;61.47;93976.63;5037168;28;20199;-83
2022/04/05 00:29:26;;;;;;;0.70;0.70;;;5.40;72.70;;;4.42;62.65;93970.72;5039069;28;20253;-82
2022/04/05 00:31:53;;;;;;;0.80;0.80;;;5.40;72.70;;;4.36;61.53;93960.22;5057233;28;20187;-83
2022/04/05 00:34:25;;;;;;;0.70;0.70;;;5.40;72.70;;;4.46;61.70;93966.78;5057087;28;20281;-82
2022/04/05 00:36:54;;;;;;;0.70;0.70;;;5.50;72.70;;;4.42;62.20;93952.56;5041417;28;20277;-82
2022/04/05 00:39:22;;;;;;;0.70;0.70;;;5.50;72.70;;;4.48;62.13;93962.22;5017679;28;20223;-82
2022/04/05 00:41:49;;;;;;;0.60;0.60;;;5.50;72.70;;;4.49;62.25;93961.25;5021582;28;20228;-82
2022/04/05 00:44:16;;;;;;;0.70;0.70;;;5.50;72.70;;;4.53;61.58;93960.88;5037017;28;20215;-82
2022/04/05 00:46:43;;;;;;;0.60;0.60;;;5.50;72.70;;;4.55;61.79;93957.13;5036964;28;20204;-82
2022/04/05 00:49:17;;;;;;;0.60;0.60;;;5.50;72.70;;;4.49;61.77;93937.88;5053518;28;20298;-82
2022/04/05 00:51:44;;;;;;;0.60;0.60;;;5.50;72.70;;;4.56;63.09;93950.16;5053545;28;20700;-82
2022/04/05 00:54:13;;;;;;;0.60;0.60;;;5.60;73.40;;;4.57;63.09;93952.56;5053132;28;20250;-82
2022/04/05 00:56:42;;;;;;;0.70;0.70;;;5.60;73.40;;;4.58;62.83;93955.97;5071874;28;20227;-82
2022/04/05 00:59:10;;;;;;;0.60;0.60;;;5.60;73.40;;;4.53;62.81;93938.31;5073213;28;20579;-81
2022/04/05 01:01:38;;;;;;;0.80;0.80;;;5.60;73.40;;;4.50;62.78;93928.28;5056351;28;20230;-82
2022/04/05 01:04:07;;;;;;;0.70;0.70;;;5.60;73.30;;;4.61;62.99;93948.63;5043668;28;20270;-81
2022/04/05 01:06:54;;;;;;;0.68;0.68;;;5.60;73.50;;;4.63;62.47;93940.66;5050880;28;20204;-83
2022/04/05 01:09:22;;;;;;;0.70;0.70;;;5.70;73.50;;;4.65;62.61;93941.25;5048377;28;20314;-82
2022/04/05 01:11:49;;;;;;;0.70;0.70;;;5.70;73.50;;;4.59;62.41;93934.19;5082922;28;20647;-83
2022/04/05 01:14:16;;;;;;;0.70;0.70;;;5.70;73.30;;;4.72;62.28;93944.75;5063032;28;20270;-82
2022/04/05 01:16:43;;;;;;;0.70;0.70;;;5.70;73.10;;;4.65;63.49;93938.66;5074245;28;20189;-83
2022/04/05 01:19:11;;;;;;;0.70;0.70;;;5.70;73.70;;;4.68;63.13;93930.53;5047591;28;20299;-81
2022/04/05 01:21:38;;;;;;;0.70;0.70;;;5.70;73.50;;;4.74;62.52;93942.78;5036361;28;20262;-81
2022/04/05 01:24:14;;;;;;;0.70;0.70;;;5.80;73.40;;;4.77;62.25;93934.66;5072206;28;20284;-82
2022/04/05 01:26:48;;;;;;;0.70;0.70;;;5.70;73.10;;;4.82;61.93;93926.28;5053746;28;20201;-82
2022/04/05 01:29:18;;;;;;;0.70;0.70;;;5.80;73.10;;;4.83;62.37;93932.31;5036229;28;20215;-82
2022/04/05 01:31:58;;;;;;;0.80;0.80;;;5.80;73.10;;;4.86;61.42;93937.13;5032255;28;20232;-82
2022/04/05 01:34:27;;;;;;;0.70;0.70;;;5.80;72.90;;;4.87;61.04;93939.56;5049420;28;20240;-82
2022/04/05 01:36:57;;;;;;;0.70;0.70;;;5.80;72.90;;;4.85;61.22;93922.56;5082431;28;20200;-81
2022/04/05 01:39:28;;;;;;;0.70;0.70;;;5.80;72.90;;;4.92;60.75;93931.22;5048492;28;20766;-83
2022/04/05 01:42:02;;;;;;;0.60;0.60;;;5.90;73.00;;;4.94;60.85;93937.88;5048991;28;20451;-82
2022/04/05 01:44:31;;;;;;;0.70;0.70;;;5.90;73.00;;;4.93;61.10;93931.06;5082433;28;20220;-83
2022/04/05 01:47:12;;;;;;;0.70;0.70;;;5.90;73.00;;;4.92;60.99;93928.63;5048724;28;20299;-83
2022/04/05 01:49:42;;;;;;;0.70;0.70;;;5.90;73.00;;;4.95;61.58;93920.47;5061769;28;20231;-81
2022/04/05 01:52:10;;;;;;;0.70;0.70;;;5.90;73.00;;;4.94;61.95;93922.28;5032023;28;20212;-81
2022/04/05 01:54:39;;;;;;;0.70;0.70;;;5.90;73.00;;;4.97;61.77;93923.72;5065572;28;20236;-82
2022/04/05 01:57:07;;;;;;;0.60;0.60;;;5.90;73.00;;;4.99;61.45;93910.53;5032236;28;20207;-82
2022/04/05 01:59:37;;;;;;;0.80;0.80;;;6.00;73.10;;;5.02;60.98;93912.78;5062114;28;20598;-82
2022/04/05 02:02:07;;;;;;;0.70;0.70;;;6.00;73.10;;;5.01;61.66;93900.75;5045541;28;20225;-83
2022/04/05 02:04:35;;;;;;;0.70;0.70;;;6.00;73.10;;;5.02;61.34;93889.38;5032089;28;20821;-83
2022/04/05 02:07:13;;;;;;;0.70;0.70;;;6.00;73.10;;;4.94;61.98;93875.50;5016911;28;20205;-83
2022/04/05 02:09:40;;;;;;;0.70;0.70;;;6.00;73.00;;;5.01;62.06;93879.97;5061513;28;20610;-83
2022/04/05 02:12:09;;;;;;;0.68;0.68;;;6.00;73.10;;;5.02;61.75;93879.00;5042205;28;20597;-82
2022/04/05 02:14:49;;;;;;;0.80;0.80;;;6.00;73.10;;;5.01;62.32;93878.16;5038959;28;20274;-82
2022/04/05 02:17:23;;;;;;;0.80;0.80;;;6.00;73.20;;;5.01;62.18;93869.56;5041922;28;20196;-83
2022/04/05 02:19:54;;;;;;;0.80;0.80;;;6.00;73.10;;;5.03;61.85;93864.97;5053562;28;20222;-83
2022/04/05 02:22:23;;;;;;;0.60;0.60;;;6.00;73.10;;;5.03;63.43;93859.78;5052480;28;20234;-82
2022/04/05 02:24:53;;;;;;;0.60;0.60;;;6.00;73.80;;;4.95;62.70;93852.91;5062031;28;20208;-82
2022/04/05 02:27:28;;;;;;;0.77;0.77;;;6.00;73.50;;;5.04;63.06;93864.81;5053008;28;20621;-83
2022/04/05 02:29:56;;;;;;;0.70;0.70;;;6.00;73.90;;;5.06;62.33;93864.63;5019284;28;20315;-83
2022/04/05 02:32:23;;;;;;;0.80;0.80;;;6.00;73.50;;;5.11;62.54;93878.69;5035013;28;20188;-84
2022/04/05 02:34:52;;;;;;;0.80;0.80;;;6.00;73.40;;;5.02;62.83;93842.59;5067093;28;20224;-83
2022/04/05 02:37:20;;;;;;;0.70;0.70;;;6.10;73.80;;;5.11;62.38;93844.09;5051654;28;20279;-84
2022/04/05 02:39:52;;;;;;;0.70;0.70;;;6.10;73.60;;;5.16;62.09;93853.94;5048364;28;20255;-84
2022/04/05 02:42:20;;;;;;;0.70;0.70;;;6.10;73.60;;;5.13;61.91;93840.31;5048382;28;20775;-84
2022/04/05 02:44:47;;;;;;;0.68;0.68;;;6.10;73.40;;;5.23;61.68;93858.19;5051677;28;20219;-83
2022/04/05 02:47:15;;;;;;;0.60;0.60;;;6.20;73.20;;;5.25;61.30;93847.63;5051677;28;20192;-84
2022/04/05 02:49:45;;;;;;;0.80;0.80;;;6.20;73.20;;;5.27;61.90;93848.22;5068110;28;20232;-84
2022/04/05 02:52:19;;;;;;;0.68;0.68;;;6.20;73.20;;;5.27;61.95;93846.47;5051564;28;20232;-84
2022/04/05 02:54:53;;;;;;;0.70;0.70;;;6.20;73.30;;;5.27;62.36;93845.63;5037098;28;20216;-83
2022/04/05 02:57:22;;;;;;;0.60;0.60;;;6.20;73.50;;;5.28;62.04;93845.47;5039881;28;20191;-84
2022/04/05 02:59:54;;;;;;;0.70;0.70;;;6.20;73.40;;;5.26;63.16;93831.84;5022446;28;20259;-84
2022/04/05 03:02:22;;;;;;;0.65;0.65;;;6.30;74.10;;;5.26;63.25;93847.44;5015487;28;20748;-84
2022/04/05 03:04:50;;;;;;;0.52;0.52;;;6.20;73.90;;;5.22;62.45;93806.41;5015504;28;20304;-83
2022/04/05 03:07:19;;;;;;;0.70;0.70;;;6.30;74.00;;;5.35;62.71;93836.94;5047147;28;20207;-85
2022/04/05 03:09:47;;;;;;;0.60;0.60;;;6.30;74.00;;;5.35;62.43;93822.13;5048009;28;20222;-84
2022/04/05 03:12:18;;;;;;;0.60;0.60;;;6.30;73.80;;;5.36;62.25;93818.53;5068234;28;20192;-84
2022/04/05 03:14:48;;;;;;;0.60;0.60;;;6.30;73.80;;;5.39;62.06;93827.75;5068713;28;20227;-84
2022/04/05 03:17:17;;;;;;;0.80;0.80;;;6.30;73.70;;;5.42;62.30;93832.56;5068118;28;20196;-84
2022/04/05 03:19:45;;;;;;;0.70;0.70;;;6.30;73.80;;;5.40;62.93;93835.38;5066040;28;20208;-84
2022/04/05 03:22:12;;;;;;;0.70;0.70;;;6.30;73.90;;;5.44;61.98;93836.63;5051199;28;20690;-84
2022/04/05 03:24:40;;;;;;;0.85;0.85;;;6.40;73.80;;;5.47;61.95;93829.41;5051251;28;20266;-84
2022/04/05 03:27:07;;;;;;;0.70;0.70;;;6.40;73.80;;;5.49;62.12;93835.25;5051131;28;20194;-84
2022/04/05 03:29:35;;;;;;;0.60;0.60;;;6.40;73.70;;;5.49;62.24;93828.22;5038363;28;20228;-84
2022/04/05 03:32:03;;;;;;;0.80;0.80;;;6.40;73.60;;;5.52;61.68;93830.47;5047717;28;20220;-84
2022/04/05 03:34:32;;;;;;;0.60;0.60;;;6.40;73.40;;;5.53;61.47;93826.06;5047486;28;20217;-83
2022/04/05 03:36:59;;;;;;;0.70;0.70;;;6.40;73.40;;;5.49;62.09;93830.84;5052199;28;20606;-84
2022/04/05 03:39:28;;;;;;;0.70;0.70;;;6.50;73.60;;;5.50;62.03;93831.66;5055246;28;20235;-83
2022/04/05 03:41:57;;;;;;;0.60;0.60;;;6.50;73.50;;;5.57;61.80;93838.50;5054762;28;20310;-83
2022/04/05 03:44:25;;;;;;;0.70;0.70;;;6.50;73.40;;;5.56;62.17;93846.50;5088284;28;20230;-84
2022/04/05 03:46:56;;;;;;;0.60;0.60;;;6.50;73.40;;;5.57;62.05;93841.13;5044391;28;20192;-84
2022/04/05 03:49:26;;;;;;;0.70;0.70;;;6.50;73.60;;;5.56;61.90;93823.88;5056370;28;20215;-83
2022/04/05 03:51:54;;;;;;;0.60;0.60;;;6.50;73.40;;;5.55;61.50;93824.09;5058102;28;20211;-83
2022/04/05 03:54:22;;;;;;;0.60;0.60;;;6.50;73.40;;;5.62;61.66;93827.56;5042017;28;20306;-83
2022/04/05 03:56:50;;;;;;;0.70;0.70;;;6.50;73.40;;;5.61;61.95;93833.75;5041439;28;20726;-83
2022/04/05 03:59:20;;;;;;;0.70;0.70;;;6.50;73.40;;;5.62;61.67;93832.75;5024398;28;20239;-84
2022/04/05 04:01:49;;;;;;;0.70;0.70;;;6.50;73.40;;;5.63;61.84;93833.53;5051978;28;20227;-84
2022/04/05 04:04:16;;;;;;;0.80;0.80;;;6.60;73.50;;;5.61;61.91;93824.16;5028184;28;20703;-84
2022/04/05 04:06:44;;;;;;;0.70;0.70;;;6.60;73.50;;;5.58;62.30;93818.53;5057778;28;20191;-84
2022/04/05 04:09:11;;;;;;;0.70;0.70;;;6.60;73.50;;;5.56;61.92;93828.31;5058050;28;20696;-83
2022/04/05 04:11:44;;;;;;;0.60;0.60;;;6.50;73.40;;;5.51;61.45;93820.25;5055182;28;20200;-83
2022/04/05 04:14:13;;;;;;;0.70;0.70;;;6.50;73.40;;;5.51;61.69;93812.47;5053760;28;20318;-83
2022/04/05 04:16:41;;;;;;;0.80;0.80;;;6.60;73.50;;;5.50;61.87;93839.44;5044255;28;20291;-82
2022/04/05 04:19:09;;;;;;;0.70;0.70;;;6.50;73.40;;;5.44;62.53;93831.41;5051136;28;20225;-83
2022/04/05 04:21:37;;;;;;;0.68;0.68;;;6.50;73.50;;;5.42;62.29;93835.16;5046397;28;20257;-83
2022/04/05 04:24:05;;;;;;;0.60;0.60;;;6.50;73.60;;;5.41;61.75;93823.97;5037657;28;20230;-83
2022/04/05 04:26:33;;;;;;;0.60;0.60;;;6.50;73.40;;;5.37;61.81;93829.72;5070441;28;20300;-83
2022/04/05 04:29:04;;;;;;;0.80;0.80;;;6.40;73.40;;;5.35;61.77;93826.53;5037460;28;20717;-83
2022/04/05 04:31:31;;;;;;;0.70;0.70;;;6.40;73.40;;;5.35;62.20;93835.13;5048420;28;20608;-83
2022/04/05 04:34:00;;;;;;;0.60;0.60;;;6.40;73.40;;;5.34;61.80;93833.50;5067622;28;20705;-84
2022/04/05 04:36:28;;;;;;;0.60;0.60;;;6.40;73.40;;;5.30;61.65;93829.69;5056890;28;20691;-83
2022/04/05 04:38:55;;;;;;;0.80;0.80;;;6.40;73.40;;;5.31;62.13;93833.91;5057522;28;20328;-83
2022/04/05 04:41:23;;;;;;;0.70;0.70;;;6.40;73.50;;;5.32;61.39;93835.47;5020264;28;20255;-83
2022/04/05 04:43:51;;;;;;;0.60;0.60;;;6.40;73.40;;;5.31;61.44;93840.88;5017075;28;20220;-84
2022/04/05 04:46:18;;;;;;;0.60;0.60;;;6.40;73.40;;;5.31;61.89;93844.28;5067722;28;20713;-84
2022/04/05 04:48:47;;;;;;;0.63;0.63;;;6.30;73.30;;;5.29;61.75;93846.25;5066280;28;20228;-84
2022/04/05 04:51:14;;;;;;;0.68;0.68;;;6.30;73.40;;;5.29;61.57;93849.66;5036834;28;20202;-83
2022/04/05 04:53:42;;;;;;;0.70;0.70;;;6.30;73.30;;;5.19;61.75;93836.19;5070958;28;20254;-85
2022/04/05 04:56:09;;;;;;;0.80;0.80;;;6.30;73.50;;;5.22;61.80;93838.38;5036667;28;20200;-84
2022/04/05 04:58:37;;;;;;;0.60;0.60;;;6.30;73.70;;;5.16;61.92;93836.53;5018568;28;20204;-84
2022/04/05 05:01:05;;;;;;;0.70;0.70;;;6.30;73.60;;;5.16;61.56;93833.13;5037075;28;20224;-85
2022/04/05 05:03:32;;;;;;;0.63;0.63;;;6.20;73.50;;;5.01;62.18;93815.78;5054173;28;20219;-84
2022/04/05 05:06:00;;;;;;;0.68;0.68;;;6.20;73.80;;;5.18;61.65;93838.97;5057354;28;20197;-86
2022/04/05 05:08:27;;;;;;;0.70;0.70;;;6.20;73.80;;;5.17;62.20;93845.94;5057224;28;20199;-83
2022/04/05 05:10:54;;;;;;;0.70;0.70;;;6.20;73.90;;;5.13;62.31;93842.13;5044853;28;20282;-84
2022/04/05 05:13:21;;;;;;;0.80;0.80;;;6.20;74.00;;;5.16;62.32;93846.13;5061695;28;20200;-84
2022/04/05 05:15:50;;;;;;;0.70;0.70;;;6.20;73.90;;;5.05;61.90;93824.81;5037459;28;20598;-84
2022/04/05 05:18:17;;;;;;;0.70;0.70;;;6.20;74.00;;;5.10;62.14;93839.88;5037139;28;20227;-84
2022/04/05 05:20:44;;;;;;;0.70;0.70;;;6.20;74.00;;;5.11;62.94;93838.88;5054156;28;20227;-84
2022/04/05 05:23:12;;;;;;;0.63;0.63;;;6.20;74.20;;;5.10;62.86;93840.69;5040655;28;20226;-84
2022/04/05 05:25:39;;;;;;;0.70;0.70;;;6.20;74.50;;;5.03;62.81;93832.03;5042842;28;20306;-83
2022/04/05 05:28:06;;;;;;;0.60;0.60;;;6.20;74.50;;;5.08;62.93;93860.84;5055949;28;20657;-84
2022/04/05 05:30:34;;;;;;;0.80;0.80;;;6.20;74.60;;;5.05;63.49;93843.00;5036439;28;20311;-85
2022/04/05 05:33:01;;;;;;;0.80;0.80;;;6.20;74.80;;;5.06;63.12;93849.03;5031349;28;20266;-84
2022/04/05 05:35:29;;;;;;;0.70;0.70;;;6.10;74.80;;;5.08;62.74;93847.06;5051933;28;20307;-85
2022/04/05 05:37:56;;;;;;;0.70;0.70;;;6.10;74.60;;;5.03;62.51;93834.63;5018853;28;20194;-84
2022/04/05 05:40:23;;;;;;;0.70;0.70;;;6.10;74.60;;;5.16;62.56;93846.94;5037733;28;20227;-84
2022/04/05 05:43:01;;;;;;;0.60;0.60;;;6.10;74.60;;;5.19;62.46;93862.16;5050391;28;20240;-85
2022/04/05 05:45:33;;;;;;;0.80;0.80;;;6.10;74.80;;;5.07;62.61;93840.25;5052739;28;20212;-85
2022/04/05 05:48:00;;;;;;;0.70;0.70;;;6.20;74.90;;;5.19;62.97;93858.75;5034567;28;20590;-85
2022/04/05 05:50:27;;;;;;;0.70;0.70;;;6.10;74.70;;;5.09;63.23;93849.47;5048791;28;20239;-85
2022/04/05 05:52:56;;;;;;;0.70;0.70;;;6.20;75.00;;;5.07;64.00;93841.03;5047055;28;20200;-85
2022/04/05 05:55:23;;;;;;;0.60;0.60;;;6.10;75.00;;;5.15;62.82;93855.75;5035834;28;20686;-85
2022/04/05 05:57:50;;;;;;;0.70;0.70;;;6.10;75.00;;;5.20;63.04;93863.78;5038960;28;20291;-85
2022/04/05 06:00:23;;;;;;;0.70;0.70;;;6.10;75.00;;;5.22;63.32;93858.38;5032304;28;20575;-84
2022/04/05 06:02:56;;;;;;;0.70;0.70;;;6.10;75.20;;;5.24;63.19;93854.63;5031575;28;20212;-84
2022/04/05 06:05:25;;;;;;;0.70;0.70;;;6.20;75.20;;;5.28;63.26;93855.88;5038329;28;20673;-84
2022/04/05 06:07:52;;;;;;;0.63;0.63;;;6.20;75.20;;;5.32;63.08;93864.09;5063881;28;20236;-84
2022/04/05 06:10:20;;;;;;;0.60;0.60;;;6.20;75.20;;;5.32;63.82;93866.69;5014228;28;20745;-84
2022/04/05 06:12:49;;;;;;;0.70;0.70;;;6.30;75.50;;;5.34;63.49;93869.13;5031178;28;20290;-85
2022/04/05 06:15:18;;;;;;;0.70;0.70;;;6.30;75.50;;;5.35;63.40;93868.91;5054991;28;20212;-84
2022/04/05 06:17:48;;;;;;;0.70;0.70;;;6.30;75.50;;;5.39;63.72;93875.34;5048142;28;20203;-84
2022/04/05 06:20:17;;;;;;;0.70;0.70;;;6.30;75.50;;;5.41;62.92;93881.19;5031933;28;20269;-84
2022/04/05 06:23:06;;;;;;;0.80;0.80;;;6.30;75.50;;;5.40;63.56;93883.97;5046843;28;20289;-84
2022/04/05 06:25:37;;;;;;;0.60;0.60;;;6.30;75.70;;;5.41;63.30;93891.59;5063068;28;20224;-84
2022/04/05 06:28:07;;;;;;;0.60;0.60;;;6.40;75.60;;;5.41;63.59;93881.19;5014837;28;20233;-84
2022/04/05 06:30:37;;;;;;;0.70;0.70;;;6.30;75.50;;;5.42;63.43;93880.19;5059591;28;20231;-85
2022/04/05 06:33:18;;;;;;;0.60;0.60;;;6.30;75.40;;;5.46;63.50;93891.03;5055324;28;20253;-85
2022/04/05 06:35:58;;;;;;;0.60;0.60;;;6.40;75.60;;;5.46;63.19;93885.84;5024735;28;20215;-85
2022/04/05 06:38:27;;;;;;;0.73;0.73;;;6.40;75.50;;;5.45;63.57;93882.41;5035331;28;20184;-82
2022/04/05 06:41:00;;;;;;;0.60;0.60;;;6.40;75.50;;;5.35;63.81;93874.13;5047270;28;20192;-84
2022/04/05 06:43:29;;;;;;;0.60;0.60;;;6.40;75.90;;;5.50;63.47;93899.28;5034797;28;20223;-85
2022/04/05 06:45:56;;;;;;;0.60;0.60;;;6.40;75.60;;;5.50;64.27;93909.69;5067790;28;20206;-84
2022/04/05 06:48:24;;;;;;;0.60;0.60;;;6.40;75.80;;;5.49;64.29;93908.84;5055614;28;20202;-84
2022/04/05 06:50:51;;;;;;;0.70;0.70;;;6.40;75.70;;;5.49;64.01;93903.66;5031121;28;20656;-84
2022/04/05 06:53:19;;;;;;;0.70;0.70;;;6.50;75.80;;;5.52;63.87;93900.69;5048460;28;20655;-84
2022/04/05 06:55:46;;;;;;;0.70;0.70;;;6.50;75.80;;;5.52;63.93;93899.91;5047457;28;20201;-83
2022/04/05 06:58:13;;;;;;;0.60;0.60;;;6.50;75.80;;;5.55;63.85;93902.13;5059550;28;20205;-83
2022/04/05 07:00:40;;;;;;;0.70;0.70;;;6.40;75.80;;;5.60;63.43;93905.78;5084681;28;20215;-83
2022/04/05 07:03:08;;;;;;;0.70;0.70;;;6.40;75.80;;;5.65;63.81;93904.41;5024570;28;20277;-84
2022/04/05 07:05:36;;;;;;;0.70;0.70;;;6.50;75.90;;;5.70;63.29;93897.66;5051628;28;20685;-84
2022/04/05 07:08:03;;;;;;;0.70;0.70;;;6.50;75.80;;;5.74;63.50;93891.09;5015561;28;20681;-85
2022/04/05 07:10:30;;;;;;;0.70;0.70;;;6.60;75.90;;;5.83;63.25;93902.16;5048099;28;20211;-84
2022/04/05 07:12:57;;;;;;;0.80;0.80;;;6.60;75.90;;;5.89;63.39;93906.63;5055892;28;20195;-83
2022/04/05 07:15:25;;;;;;;0.70;0.70;;;6.60;76.00;;;5.92;63.26;93897.66;5055434;28;20230;-84
2022/04/05 07:17:52;;;;;;;0.70;0.70;;;6.70;76.00;;;5.99;63.17;93905.53;5050635;28;20279;-83
2022/04/05 07:20:31;;;;;;;0.68;0.68;;;6.70;76.00;;;6.05;63.14;93915.19;5072493;28;20239;-83
2022/04/05 07:22:58;;;;;;;0.70;0.70;;;6.80;75.90;;;6.07;63.19;93911.41;5067245;28;20208;-84
2022/04/05 07:25:26;;;;;;;0.70;0.70;;;6.80;76.00;;;6.10;62.88;93907.59;5064682;28;20586;-84
2022/04/05 07:27:54;;;;;;;0.70;0.70;;;6.80;75.80;;;6.21;63.28;93908.91;5056533;28;20193;-84
2022/04/05 07:30:21;;;;;;;0.70;0.70;;;7.00;76.00;;;6.28;63.36;93908.94;5064125;28;20222;-84
2022/04/05 07:32:49;;;;;;;0.70;0.70;;;7.00;76.10;;;6.34;63.18;93903.78;5058935;28;20212;-84
2022/04/05 07:35:17;;;;;;;0.60;0.60;;;7.00;76.10;;;6.41;63.03;93903.84;5070860;28;20216;-83
2022/04/05 07:37:46;;;;;;;0.70;0.70;;;7.10;76.20;;;6.44;63.63;93903.44;5032250;28;20250;-83
2022/04/05 07:40:15;;;;;;;0.70;0.70;;;7.10;76.20;;;6.53;63.06;93917.09;5055428;28;20217;-83
2022/04/05 07:42:44;;;;;;;0.60;0.60;;;7.20;76.20;;;6.52;63.25;93905.09;5051542;28;20228;-85
2022/04/05 07:45:14;;;;;;;0.60;0.60;;;7.20;76.20;;;6.58;63.32;93917.38;5067968;28;20217;-84
2022/04/05 07:47:42;;;;;;;0.50;0.50;;;7.30;77.10;;;6.59;63.80;93913.72;5048984;28;20199;-83
2022/04/05 07:50:10;;;;;;;0.73;0.73;;;7.30;76.30;;;6.62;63.85;93912.56;5051429;28;20217;-83
2022/04/05 07:52:38;;;;;;;0.60;0.60;;;7.40;76.30;;;6.66;63.56;93911.19;5056320;28;20241;-83
2022/04/05 07:55:06;;;;;;;0.60;0.60;;;7.40;76.30;;;6.70;63.61;93921.03;5018208;28;20625;-83
2022/04/05 07:57:36;;;;;;;0.60;0.60;;;7.40;76.30;;;6.70;63.35;93902.78;5067724;28;20229;-84
2022/04/05 08:00:05;;;;;;;0.70;0.70;;;7.40;76.20;;;6.84;63.36;93915.88;5051741;28;20228;-84
2022/04/05 08:02:38;;;;;;;0.60;0.60;;;7.50;76.30;;;6.91;63.36;93905.47;5045257;28;20686;-84
2022/04/05 08:05:14;;;;;;;0.70;0.70;;;7.60;76.40;;;7.04;63.29;93908.16;5050162;28;20690;-84
2022/04/05 08:07:42;;;;;;;0.80;0.80;;;7.60;76.40;;;7.15;63.13;93914.59;5051167;28;20204;-84
2022/04/05 08:10:10;;;;;;;0.60;0.60;;;7.60;76.40;;;7.24;62.94;93910.03;5080840;28;20211;-84
2022/04/05 08:12:43;;;;;;;0.70;0.70;;;7.70;76.60;;;7.35;63.38;93925.13;5037851;28;20192;-83
2022/04/05 08:15:29;;;;;;;0.60;0.60;;;7.80;77.40;;;7.40;62.99;93932.34;5054167;28;20216;-84
2022/04/05 08:17:57;;;;;;;0.60;0.60;;;7.90;76.40;;;7.50;62.37;93932.78;5059101;28;20378;-84
2022/04/05 08:20:26;;;;;;;0.60;0.60;;;8.00;76.30;;;7.59;62.62;93941.22;5049858;28;20222;-83
2022/04/05 08:22:53;;;;;;;0.60;0.60;;;8.00;76.30;;;7.62;62.99;93941.63;5070288;28;20615;-84
2022/04/05 08:25:21;;;;;;;0.60;0.60;;;8.10;76.30;;;7.60;62.67;93945.44;5037644;28;20212;-83
2022/04/05 08:27:48;;;;;;;0.70;0.70;;;8.20;76.20;;;7.61;62.14;93937.41;5037903;28;20207;-83
2022/04/05 08:30:18;;;;;;;0.70;0.70;;;8.20;75.90;;;7.71;62.54;93951.91;5036953;28;20778;-83
2022/04/05 08:32:47;;;;;;;0.60;0.60;;;8.30;76.10;;;7.75;62.21;93951.31;5037113;28;20196;-83
2022/04/05 08:35:18;;;;;;;0.60;0.60;;;8.30;75.90;;;7.81;62.11;93945.31;5054044;28;20225;-84
2022/04/05 08:37:47;;;;;;;0.60;0.60;;;8.40;75.90;;;7.81;62.33;93955.75;5037432;28;20199;-84
2022/04/05 08:40:16;;;;;;;0.57;0.57;;;8.40;75.90;;;7.89;62.19;93943.50;5037390;28;20597;-84
2022/04/05 08:42:50;;;;;;;0.70;0.70;;;8.40;75.70;;;7.96;61.97;93954.75;5040253;28;20671;-84
2022/04/05 08:45:20;;;;;;;0.60;0.60;;;8.50;75.70;;;8.02;61.86;93941.69;5068349;28;20220;-83
2022/04/05 08:47:53;;;;;;;0.60;0.60;;;8.50;75.80;;;8.17;61.81;93953.78;5055022;28;20275;-82
2022/04/05 08:50:40;;;;;;;0.50;0.50;;;8.60;75.80;;;8.31;61.64;93941.50;5044856;28;20219;-84
2022/04/05 08:53:07;;;;;;;0.60;0.60;;;8.70;75.40;;;8.42;61.53;93945.31;5033255;28;20287;-83
2022/04/05 08:55:37;;;;;;;0.50;0.50;;;8.80;75.80;;;8.52;61.39;93947.56;5048361;28;20217;-83
2022/04/05 08:58:05;;;;;;;0.70;0.70;;;8.90;75.60;;;8.63;61.27;93952.97;5066268;28;20232;-84
2022/04/05 09:00:32;;;;;;;0.70;0.70;;;9.00;75.80;;;8.73;60.66;93944.72;5050123;28;20252;-83
2022/04/05 09:03:05;;;;;;;0.60;0.60;;;9.10;75.40;;;8.84;60.67;93948.50;5033388;28;20229;-83
2022/04/05 09:05:40;;;;;;;0.60;0.60;;;9.10;75.20;;;8.97;60.30;93956.34;5033527;28;20209;-83
2022/04/05 09:08:28;;;;;;;0.70;0.70;;;9.30;75.30;;;9.11;60.32;93953.69;5049821;28;20185;-84
2022/04/05 09:11:12;;;;;;;0.60;0.60;;;9.30;75.30;;;9.14;58.87;93958.47;5050047;28;20216;-83
2022/04/05 09:13:40;;;;;;;0.70;0.70;;;9.50;74.60;;;9.17;59.33;93958.09;5033296;28;20193;-83
2022/04/05 09:16:08;;;;;;;0.57;0.57;;;9.50;74.90;;;9.26;59.18;93961.25;5033056;28;20662;-83
2022/04/05 09:18:42;;;;;;;0.68;0.68;;;9.60;74.90;;;9.25;59.05;93952.63;5065988;28;20201;-83
2022/04/05 09:21:14;;;;;;;0.70;0.70;;;9.70;74.60;;;9.34;58.42;93965.44;5049593;28;20231;-82
2022/04/05 09:23:43;;;;;;;0.60;0.60;;;9.70;74.30;;;9.36;58.25;93966.06;5049880;28;20240;-85
2022/04/05 09:26:15;;;;;;;0.57;0.57;;;9.80;74.00;;;9.33;58.11;93961.25;5066194;28;20250;-83
2022/04/05 09:28:47;;;;;;;0.60;0.60;;;9.80;73.50;;;9.35;58.30;93967.06;5065790;28;20217;-83
2022/04/05 09:31:20;;;;;;;0.70;0.70;;;9.90;73.60;;;9.39;58.08;93970.91;5049052;28;20207;-83
2022/04/05 09:34:17;;;;;;;0.60;0.60;;;9.90;73.60;;;9.47;58.39;93960.16;5048722;28;20717;-83
2022/04/05 09:36:51;;;;;;;0.60;0.60;;;9.90;73.30;;;9.53;57.45;93976.88;5048111;28;20258;-83
2022/04/05 09:39:24;;;;;;;0.70;0.70;;;10.00;72.00;;;9.43;56.78;93959.78;5032634;28;20311;-82
2022/04/05 09:42:07;;;;;;;0.70;0.70;;;10.00;71.50;;;9.47;56.88;93972.47;5033058;28;20263;-83
2022/04/05 09:44:42;;;;;;;0.60;0.60;;;10.00;71.30;;;9.48;56.95;93981.94;5032573;28;20709;-82
2022/04/05 09:47:10;;;;;;;0.70;0.70;;;10.10;71.40;;;9.42;56.94;93975.69;5032985;28;20192;-84
2022/04/05 09:49:40;;;;;;;0.60;0.60;;;10.10;71.10;;;9.45;56.91;93989.16;5049082;28;20244;-83
2022/04/05 09:52:35;;;;;;;0.70;0.70;;;10.10;71.10;;;9.42;57.05;93994.84;5048628;28;20689;-84
2022/04/05 09:55:14;;;;;;;0.65;0.65;;;10.10;70.90;;;9.45;57.04;93996.22;5015789;28;20224;-84
2022/04/05 09:57:43;;;;;;;0.70;0.70;;;10.10;71.00;;;9.35;57.33;93988.00;5032748;28;20201;-84
2022/04/05 10:00:14;;;;;;;0.60;0.60;;;10.10;71.00;;;9.38;57.59;94000.69;5032512;28;20255;-84
2022/04/05 10:03:18;;;;;;;0.60;0.60;;;10.10;71.00;;;9.31;57.00;93992.06;5047993;28;20189;-82
2022/04/05 10:05:53;;;;;;;0.60;0.60;;;10.10;70.90;;;9.31;56.72;94002.53;5028420;28;20220;-83
2022/04/05 10:08:21;;;;;;;0.70;0.70;;;10.10;70.70;;;9.29;56.08;94010.59;5048671;28;20181;-83
2022/04/05 10:10:49;;;;;;;0.60;0.60;;;10.10;70.20;;;9.26;56.15;94008.38;5065429;28;20224;-82
2022/04/05 10:13:16;;;;;;;0.50;0.50;;;10.00;70.30;;;9.22;55.45;94010.59;5031959;28;20220;-84
2022/04/05 10:15:47;;;;;;;0.60;0.60;;;10.00;70.10;;;9.22;56.39;94005.34;5032005;28;20216;-84
2022/04/05 10:18:20;;;;;;;0.65;0.65;;;10.00;70.40;;;9.26;56.60;94008.38;5065292;28;20238;-83
2022/04/05 10:20:49;;;;;;;0.70;0.70;;;10.00;70.40;;;9.28;56.60;94012.38;5048688;28;20681;-84
2022/04/05 10:23:22;;;;;;;0.60;0.60;;;10.00;70.50;;;9.41;56.57;94021.19;5031864;28;20217;-83
2022/04/05 10:25:52;;;;;;;0.60;0.60;;;10.00;70.50;;;9.47;56.50;94022.19;5064821;28;20196;-83
2022/04/05 10:28:25;;;;;;;0.70;0.70;;;10.00;70.70;;;9.52;56.41;94014.50;5048252;28;20284;-82
2022/04/05 10:31:42;;;;;;;0.70;0.70;;;10.10;70.70;;;9.67;56.88;94016.91;5032052;28;20197;-83
2022/04/05 10:34:34;;;;;;;0.60;0.60;;;10.10;71.00;;;9.74;56.52;94015.84;5030270;28;20220;-83
2022/04/05 10:37:18;;;;;;;0.60;0.60;;;10.20;71.00;;;9.82;56.28;94027.09;5064823;28;20199;-82
2022/04/05 10:39:57;;;;;;;0.60;0.60;;;10.30;70.90;;;9.81;55.95;94021.03;5047967;28;20252;-83
2022/04/05 10:42:33;;;;;;;0.60;0.60;;;10.30;70.70;;;9.81;56.34;94030.72;5048094;28;20292;-82
2022/04/05 10:45:19;;;;;;;0.70;0.70;;;10.40;70.70;;;9.76;55.97;94026.09;5064527;28;20366;-83
2022/04/05 10:47:59;;;;;;;0.60;0.60;;;10.40;70.30;;;9.70;55.84;94029.56;5031557;28;20187;-83